Quail Valley, California
Current Conditions -  °F | °C
As of 2:15 AM on Saturday 25 Oct 2014 (Local Time) from KF70 Reporting Station
Scattered Clouds Scattered Clouds  
Wind Chill: 61°   Ceiling: Unl
Heat Index: 61°   Visibility: 10mi
Dew Point: 36°   Wind: 0mph
Humidity: 39%   Direction: NA
Pressure: 30.04"   Gusts: NA
Location:  33.6906°N, 117.25°W
Report Text: KF70 250915Z AUTO 00000KT 10SM SCT085 16/02 A3004 RMK AO1
Loading
Personal Weather Stations






























Interactive Weather Map
Tropical Storm Tracking
New forecast layout! Learn more

10-Day Weather Forecast

Advertisements
Track Severe Weather on mobile